Time;durP1;ratioP1;P1;durP2;ratioP2;P2;SDS_P1;SDS_P2;PMS_P1;PMS_P2;Temp;Humidity;BMP_temperature;BMP_pressure;BME280_temperature;BME280_humidity;BME280_pressure;Samples;Min_cycle;Max_cycle;Signal;HPM_P1;HPM_P2
2023/12/08 00:01:16;;;;;;;55.37;27.93;;;2.40;99.90;;;;;;5130523;27;20323;-67
2023/12/08 00:03:44;;;;;;;54.57;29.13;;;2.50;99.90;;;;;;5130545;27;20654;-67
2023/12/08 00:06:12;;;;;;;52.20;27.57;;;2.30;99.90;;;;;;5130458;27;20195;-65
2023/12/08 00:08:42;;;;;;;58.70;29.27;;;2.20;99.90;;;;;;5130144;27;20214;-66
2023/12/08 00:11:11;;;;;;;65.07;29.80;;;2.20;99.90;;;;;;5130182;27;20195;-65
2023/12/08 00:13:38;;;;;;;61.07;28.70;;;2.30;99.90;;;;;;5130435;27;20191;-66
2023/12/08 00:16:08;;;;;;;59.97;29.40;;;2.30;99.90;;;;;;5130473;27;20280;-68
2023/12/08 00:18:37;;;;;;;58.70;28.33;;;2.40;99.90;;;;;;5130082;27;20234;-62
2023/12/08 00:21:06;;;;;;;57.67;28.67;;;2.40;99.90;;;;;;5129708;27;20197;-61
2023/12/08 00:23:34;;;;;;;62.63;29.03;;;2.30;99.90;;;;;;5130142;27;20194;-64
2023/12/08 00:26:04;;;;;;;63.33;30.27;;;2.40;99.90;;;;;;5130423;28;20710;-67
2023/12/08 00:28:33;;;;;;;61.33;30.87;;;2.30;99.90;;;;;;5130107;28;20190;-67
2023/12/08 00:31:01;;;;;;;63.03;29.73;;;2.20;99.90;;;;;;5130211;27;20200;-64
2023/12/08 00:33:29;;;;;;;67.93;33.23;;;2.10;99.90;;;;;;5130145;28;20188;-68
2023/12/08 00:35:58;;;;;;;60.37;29.93;;;2.20;99.90;;;;;;5130216;28;20691;-59
2023/12/08 00:38:26;;;;;;;70.67;33.00;;;2.20;99.90;;;;;;5129964;27;20192;-57
2023/12/08 00:40:56;;;;;;;67.07;32.47;;;2.10;99.90;;;;;;5130018;28;20227;-64
2023/12/08 00:43:26;;;;;;;63.00;31.93;;;2.10;99.90;;;;;;5130161;27;20252;-59
2023/12/08 00:45:54;;;;;;;67.10;31.60;;;2.00;99.90;;;;;;5130059;28;20207;-66
2023/12/08 00:48:23;;;;;;;75.23;33.73;;;2.00;99.90;;;;;;5130161;28;20192;-63
2023/12/08 00:50:51;;;;;;;70.23;34.27;;;2.10;99.90;;;;;;5130008;28;20185;-64
2023/12/08 00:53:19;;;;;;;68.73;34.80;;;2.10;99.90;;;;;;5129994;27;20219;-58
2023/12/08 00:55:48;;;;;;;77.77;34.33;;;2.20;99.90;;;;;;5130139;27;20191;-58
2023/12/08 00:58:16;;;;;;;79.00;34.67;;;2.00;99.90;;;;;;5129826;28;20231;-62
2023/12/08 01:00:46;;;;;;;78.83;35.07;;;2.10;99.90;;;;;;5130202;28;20220;-60
2023/12/08 01:03:15;;;;;;;85.63;36.00;;;2.20;99.90;;;;;;5130104;27;20279;-66
2023/12/08 01:05:43;;;;;;;83.23;34.03;;;2.00;99.90;;;;;;5130132;28;20665;-61
2023/12/08 01:08:11;;;;;;;82.43;37.07;;;2.00;99.90;;;;;;5129923;28;20199;-64
2023/12/08 01:10:40;;;;;;;82.03;35.37;;;1.80;99.90;;;;;;5129934;28;20186;-62
2023/12/08 01:13:08;;;;;;;78.90;36.83;;;2.00;99.90;;;;;;5129895;28;20204;-64
2023/12/08 01:15:36;;;;;;;81.10;34.10;;;2.10;99.90;;;;;;5129842;28;20195;-63
2023/12/08 01:18:06;;;;;;;80.60;34.93;;;2.20;99.90;;;;;;5129904;27;20191;-68
2023/12/08 01:20:36;;;;;;;83.20;36.63;;;2.20;99.90;;;;;;5129705;27;20229;-64
2023/12/08 01:23:04;;;;;;;80.83;34.67;;;2.20;99.90;;;;;;5129836;28;20211;-60
2023/12/08 01:25:32;;;;;;;72.70;34.53;;;2.00;99.90;;;;;;5129710;28;20197;-64
2023/12/08 01:28:01;;;;;;;85.83;36.40;;;1.90;99.90;;;;;;5129595;28;20211;-66
2023/12/08 01:30:29;;;;;;;86.00;34.13;;;1.80;99.90;;;;;;5129904;27;20199;-63
2023/12/08 01:32:58;;;;;;;86.63;35.60;;;1.80;99.90;;;;;;5127380;27;20192;-65
2023/12/08 01:35:28;;;;;;;85.90;36.10;;;1.70;99.90;;;;;;5120396;27;20678;-66
2023/12/08 01:37:56;;;;;;;87.30;37.63;;;1.90;99.90;;;;;;5121472;27;20224;-67
2023/12/08 01:40:24;;;;;;;84.33;34.80;;;1.90;99.90;;;;;;5133449;27;20312;-65
2023/12/08 01:42:53;;;;;;;87.13;36.07;;;2.10;99.90;;;;;;5133449;27;20199;-62
2023/12/08 01:45:21;;;;;;;75.07;35.03;;;2.10;99.90;;;;;;5114284;27;20318;-66
2023/12/08 01:47:50;;;;;;;85.83;36.10;;;2.20;99.90;;;;;;5112897;28;20197;-63
2023/12/08 01:50:19;;;;;;;80.70;37.87;;;2.10;99.90;;;;;;5112548;28;20200;-65
2023/12/08 01:52:50;;;;;;;86.33;36.20;;;2.20;99.90;;;;;;5112586;28;20211;-67
2023/12/08 01:55:19;;;;;;;92.30;37.90;;;2.10;99.90;;;;;;5115422;27;20196;-65
2023/12/08 01:57:47;;;;;;;88.03;35.90;;;2.20;99.90;;;;;;5112118;28;20664;-61
2023/12/08 02:00:16;;;;;;;90.47;37.87;;;2.10;99.90;;;;;;5127841;27;20230;-64
2023/12/08 02:02:45;;;;;;;90.03;35.70;;;2.00;99.90;;;;;;5132823;27;20225;-66
2023/12/08 02:05:16;;;;;;;83.40;36.70;;;2.00;99.90;;;;;;5132873;27;20199;-65
2023/12/08 02:07:45;;;;;;;88.97;37.77;;;2.10;99.90;;;;;;5132796;27;20288;-63
2023/12/08 02:10:15;;;;;;;88.87;37.17;;;1.90;99.90;;;;;;5132614;27;20531;-66
2023/12/08 02:12:44;;;;;;;80.17;36.40;;;1.70;99.90;;;;;;5132667;27;20198;-67
2023/12/08 02:15:12;;;;;;;83.60;34.70;;;1.70;99.90;;;;;;5132604;27;20570;-64
2023/12/08 02:17:41;;;;;;;76.67;34.27;;;1.80;99.90;;;;;;5132704;27;20191;-62
2023/12/08 02:20:10;;;;;;;75.50;33.50;;;1.90;99.90;;;;;;5132338;27;20681;-61
2023/12/08 02:22:39;;;;;;;81.63;35.30;;;2.00;99.90;;;;;;5132758;27;20657;-63
2023/12/08 02:25:09;;;;;;;79.63;35.20;;;1.90;99.90;;;;;;5132414;27;20798;-65
2023/12/08 02:27:37;;;;;;;80.63;35.90;;;2.10;99.90;;;;;;5124509;27;20196;-68
2023/12/08 02:30:07;;;;;;;88.87;37.20;;;2.10;99.90;;;;;;5114642;27;20647;-63
2023/12/08 02:32:42;;;;;;;78.83;35.13;;;2.20;99.90;;;;;;5116127;27;20598;-66
2023/12/08 02:35:12;;;;;;;80.03;35.27;;;2.30;99.90;;;;;;5132241;27;20194;-60
2023/12/08 02:37:44;;;;;;;76.27;35.00;;;2.40;99.90;;;;;;5132107;27;20198;-67
2023/12/08 02:40:14;;;;;;;77.27;34.20;;;2.10;99.90;;;;;;5123292;27;20220;-64
2023/12/08 02:42:42;;;;;;;80.00;33.67;;;2.00;99.90;;;;;;5110470;28;20227;-63
2023/12/08 02:45:11;;;;;;;81.00;35.73;;;2.10;99.90;;;;;;5111253;28;20198;-66
2023/12/08 02:47:40;;;;;;;71.93;34.23;;;2.20;99.90;;;;;;5111319;28;20188;-67
2023/12/08 02:50:08;;;;;;;81.87;35.80;;;2.30;99.90;;;;;;5111191;28;20217;-64
2023/12/08 02:52:37;;;;;;;81.93;36.87;;;2.40;99.90;;;;;;5111559;27;20642;-66
2023/12/08 02:55:05;;;;;;;77.90;35.13;;;2.40;99.90;;;;;;5131572;27;20681;-66
2023/12/08 02:57:35;;;;;;;78.93;36.13;;;2.50;99.90;;;;;;5131617;27;20257;-67
2023/12/08 03:00:04;;;;;;;73.30;34.17;;;2.40;99.90;;;;;;5130013;27;20187;-65
2023/12/08 03:02:33;;;;;;;78.00;33.73;;;2.40;99.90;;;;;;5132252;27;20200;-62
2023/12/08 03:05:01;;;;;;;91.00;36.43;;;2.40;99.90;;;;;;5131719;27;20207;-64
2023/12/08 03:07:29;;;;;;;72.90;34.00;;;2.10;99.90;;;;;;5131535;27;20251;-63
2023/12/08 03:09:57;;;;;;;81.17;34.70;;;2.10;99.90;;;;;;5112523;27;20214;-64
2023/12/08 03:12:26;;;;;;;78.90;36.73;;;2.10;99.90;;;;;;5131113;27;20233;-67
2023/12/08 03:14:55;;;;;;;79.63;35.53;;;2.20;99.90;;;;;;5131238;27;20243;-63
2023/12/08 03:17:24;;;;;;;82.87;35.70;;;2.30;99.90;;;;;;5131314;27;20198;-58
2023/12/08 03:19:52;;;;;;;77.53;34.87;;;2.20;99.90;;;;;;5130903;27;20638;-60
2023/12/08 03:22:21;;;;;;;89.53;39.07;;;2.30;99.90;;;;;;5131137;27;20274;-58
2023/12/08 03:24:49;;;;;;;80.30;35.30;;;2.40;99.90;;;;;;5131023;27;20232;-64
2023/12/08 03:27:17;;;;;;;75.37;34.40;;;2.50;99.90;;;;;;5131137;27;20196;-62
2023/12/08 03:29:46;;;;;;;76.20;34.00;;;2.40;99.90;;;;;;5130733;27;20203;-60
2023/12/08 03:32:15;;;;;;;77.03;35.50;;;2.40;99.90;;;;;;5131005;27;20648;-64
2023/12/08 03:34:44;;;;;;;72.97;33.83;;;2.50;99.90;;;;;;5131161;27;20283;-65
2023/12/08 03:37:12;;;;;;;80.57;34.60;;;2.60;99.90;;;;;;5131126;27;20192;-64
2023/12/08 03:39:40;;;;;;;75.83;33.80;;;2.60;99.90;;;;;;5130708;27;20218;-62
2023/12/08 03:42:08;;;;;;;83.07;35.13;;;2.40;99.90;;;;;;5131001;27;20227;-66
2023/12/08 03:44:37;;;;;;;77.53;35.33;;;2.30;99.90;;;;;;5131218;27;20192;-67
2023/12/08 03:47:05;;;;;;;81.73;33.83;;;2.40;99.90;;;;;;5131071;27;20196;-67
2023/12/08 03:49:35;;;;;;;72.03;35.40;;;2.50;99.90;;;;;;5130702;27;20257;-65
2023/12/08 03:52:04;;;;;;;73.73;34.13;;;2.50;99.90;;;;;;5130828;27;20191;-66
2023/12/08 03:54:32;;;;;;;87.57;34.53;;;2.30;99.90;;;;;;5129834;27;20193;-60
2023/12/08 03:57:00;;;;;;;75.33;35.17;;;2.20;99.90;;;;;;5130820;27;20200;-63
2023/12/08 03:59:29;;;;;;;72.40;31.57;;;2.20;99.90;;;;;;5130198;27;20724;-65
2023/12/08 04:01:57;;;;;;;79.97;34.97;;;2.00;99.90;;;;;;5130508;27;20208;-64
2023/12/08 04:04:25;;;;;;;79.13;34.60;;;2.20;99.90;;;;;;5130667;27;20196;-64
2023/12/08 04:06:56;;;;;;;75.70;34.50;;;2.30;99.90;;;;;;5130564;27;20187;-65
2023/12/08 04:09:24;;;;;;;78.07;35.63;;;2.50;99.90;;;;;;5130222;27;20196;-61
2023/12/08 04:11:54;;;;;;;78.37;35.57;;;2.40;99.90;;;;;;5130128;27;20202;-65
2023/12/08 04:14:22;;;;;;;78.23;35.60;;;2.10;99.90;;;;;;5130229;27;20197;-66
2023/12/08 04:16:52;;;;;;;83.63;36.97;;;2.10;99.90;;;;;;5130238;27;20200;-62
2023/12/08 04:19:20;;;;;;;76.80;34.57;;;2.20;99.90;;;;;;5130034;27;20287;-59
2023/12/08 04:21:49;;;;;;;73.90;32.10;;;2.10;99.90;;;;;;5129921;27;20260;-58
2023/12/08 04:24:18;;;;;;;77.50;34.30;;;2.00;99.90;;;;;;5129957;27;20726;-64
2023/12/08 04:26:47;;;;;;;72.00;32.47;;;2.00;99.90;;;;;;5130030;27;20198;-66
2023/12/08 04:29:15;;;;;;;77.80;35.10;;;1.90;99.90;;;;;;5129874;27;20183;-61
2023/12/08 04:31:43;;;;;;;72.57;32.60;;;2.00;99.90;;;;;;5129966;27;20279;-61
2023/12/08 04:34:12;;;;;;;72.43;33.47;;;1.90;99.90;;;;;;5129954;28;20191;-64
2023/12/08 04:36:40;;;;;;;67.60;32.50;;;1.80;99.90;;;;;;5129984;28;20266;-65
2023/12/08 04:39:09;;;;;;;79.67;32.80;;;2.00;99.90;;;;;;5129892;28;20207;-66
2023/12/08 04:41:39;;;;;;;72.77;31.87;;;1.90;99.90;;;;;;5129703;28;20755;-64
2023/12/08 04:44:07;;;;;;;60.93;28.50;;;1.90;99.90;;;;;;5130121;28;20653;-65
2023/12/08 04:46:35;;;;;;;70.27;30.10;;;1.80;99.90;;;;;;5129896;28;20219;-67
2023/12/08 04:49:04;;;;;;;68.57;31.17;;;1.80;99.90;;;;;;5130019;28;20203;-64
2023/12/08 04:51:32;;;;;;;73.20;31.47;;;2.00;99.90;;;;;;5129669;28;20199;-64
2023/12/08 04:54:00;;;;;;;67.27;30.70;;;1.90;99.90;;;;;;5129876;28;20207;-67
2023/12/08 04:56:29;;;;;;;62.87;29.43;;;1.80;99.90;;;;;;5129600;28;20280;-62
2023/12/08 04:58:59;;;;;;;66.03;30.20;;;1.70;99.90;;;;;;5125296;27;20228;-67
2023/12/08 05:01:27;;;;;;;65.37;31.07;;;1.60;99.90;;;;;;5112203;27;20653;-64
2023/12/08 05:03:55;;;;;;;68.93;30.53;;;1.60;99.90;;;;;;5115417;28;20244;-64
2023/12/08 05:06:26;;;;;;;67.63;31.30;;;1.60;99.90;;;;;;5131539;27;20214;-64
2023/12/08 05:08:54;;;;;;;65.80;30.03;;;1.70;99.90;;;;;;5113251;28;20199;-60
2023/12/08 05:11:23;;;;;;;54.13;27.27;;;1.80;99.90;;;;;;5113023;28;20195;-63
2023/12/08 05:13:51;;;;;;;60.10;26.70;;;1.80;99.90;;;;;;5116287;27;20653;-61
2023/12/08 05:16:21;;;;;;;58.30;27.60;;;1.70;99.90;;;;;;5133403;27;20196;-61
2023/12/08 05:18:49;;;;;;;69.13;28.73;;;1.90;99.90;;;;;;5130109;27;20208;-59
2023/12/08 05:21:17;;;;;;;59.90;26.23;;;1.80;99.90;;;;;;5120449;27;20199;-61
2023/12/08 05:23:46;;;;;;;64.27;28.47;;;1.70;99.90;;;;;;5112843;28;20236;-65
2023/12/08 05:26:14;;;;;;;58.90;27.17;;;1.70;99.90;;;;;;5112498;28;20680;-65
2023/12/08 05:28:42;;;;;;;58.67;27.27;;;1.70;99.90;;;;;;5112840;28;20607;-65
2023/12/08 05:31:11;;;;;;;56.07;24.80;;;1.80;99.90;;;;;;5112943;28;20222;-62
2023/12/08 05:33:42;;;;;;;55.60;28.20;;;1.70;99.90;;;;;;5113492;27;20183;-63
2023/12/08 05:36:11;;;;;;;59.80;27.47;;;1.70;99.90;;;;;;5120596;27;20207;-64
2023/12/08 05:38:40;;;;;;;56.57;27.20;;;1.70;99.90;;;;;;5112692;28;20200;-68
2023/12/08 05:41:08;;;;;;;58.37;27.90;;;1.80;99.90;;;;;;5130309;27;20241;-66
2023/12/08 05:43:37;;;;;;;57.27;27.63;;;1.90;99.90;;;;;;5133038;27;20219;-68
2023/12/08 05:46:05;;;;;;;66.60;29.70;;;2.10;99.90;;;;;;5123013;27;20199;-66
2023/12/08 05:48:34;;;;;;;74.37;34.03;;;2.00;99.90;;;;;;5123288;27;20247;-60
2023/12/08 05:51:04;;;;;;;64.10;31.33;;;2.00;99.90;;;;;;5132788;27;20242;-67
2023/12/08 05:53:32;;;;;;;63.63;27.60;;;1.90;99.90;;;;;;5133073;27;20201;-65
2023/12/08 05:56:00;;;;;;;57.67;25.63;;;1.80;99.90;;;;;;5132966;27;20210;-63
2023/12/08 05:58:28;;;;;;;61.77;27.27;;;1.80;99.90;;;;;;5132989;27;20226;-64
2023/12/08 06:00:57;;;;;;;65.63;29.73;;;1.70;99.90;;;;;;5131258;27;20201;-61
2023/12/08 06:03:25;;;;;;;58.57;27.63;;;1.80;99.90;;;;;;5132832;27;20231;-67
2023/12/08 06:05:54;;;;;;;57.83;27.17;;;1.70;99.90;;;;;;5132726;27;20191;-65
2023/12/08 06:08:24;;;;;;;72.10;28.70;;;1.60;99.90;;;;;;5132866;27;20200;-66
2023/12/08 06:10:52;;;;;;;69.17;30.77;;;1.40;99.90;;;;;;5132617;27;20199;-63
2023/12/08 06:13:21;;;;;;;68.93;29.27;;;1.40;99.90;;;;;;5132486;27;20276;-63
2023/12/08 06:15:49;;;;;;;65.50;30.23;;;1.50;99.90;;;;;;5132563;27;20189;-67
2023/12/08 06:18:18;;;;;;;62.47;28.20;;;1.50;99.90;;;;;;5131313;27;20195;-66
2023/12/08 06:20:46;;;;;;;60.83;29.73;;;1.60;99.90;;;;;;5125661;27;20193;-62
2023/12/08 06:23:15;;;;;;;64.23;29.87;;;1.70;99.90;;;;;;5117015;27;20776;-66
2023/12/08 06:25:44;;;;;;;68.77;31.10;;;1.60;99.90;;;;;;5130865;27;20199;-64
2023/12/08 06:28:13;;;;;;;73.17;32.53;;;1.70;99.90;;;;;;5131411;27;20750;-66
2023/12/08 06:30:41;;;;;;;81.80;31.67;;;1.70;99.90;;;;;;5131622;27;20200;-67
2023/12/08 06:33:10;;;;;;;83.60;33.30;;;1.90;99.90;;;;;;5131457;27;20198;-66
2023/12/08 06:35:39;;;;;;;83.40;35.57;;;1.80;99.90;;;;;;5131687;27;20204;-67
2023/12/08 06:38:07;;;;;;;75.63;32.60;;;1.70;99.90;;;;;;5131555;27;20202;-66
2023/12/08 06:40:35;;;;;;;82.80;33.73;;;1.60;99.90;;;;;;5128482;27;20192;-68
2023/12/08 06:43:05;;;;;;;89.37;36.20;;;1.60;99.90;;;;;;5118266;27;20228;-60
2023/12/08 06:45:33;;;;;;;88.03;34.67;;;1.70;99.90;;;;;;5129208;27;20550;-63
2023/12/08 06:48:02;;;;;;;80.10;35.23;;;1.80;99.90;;;;;;5131644;27;20293;-60
2023/12/08 06:50:30;;;;;;;93.63;34.37;;;1.90;99.90;;;;;;5131475;27;20567;-62
2023/12/08 06:52:59;;;;;;;84.70;36.37;;;1.80;99.90;;;;;;5130946;27;20204;-65
2023/12/08 06:55:27;;;;;;;85.70;35.77;;;1.90;99.90;;;;;;5131496;27;20260;-64
2023/12/08 06:57:55;;;;;;;92.83;35.77;;;2.00;99.90;;;;;;5131383;27;20686;-60
2023/12/08 07:00:25;;;;;;;84.70;36.97;;;1.80;99.90;;;;;;5131984;27;20632;-62
2023/12/08 07:02:53;;;;;;;107.50;39.57;;;1.70;99.90;;;;;;5128113;27;20278;-61
2023/12/08 07:05:22;;;;;;;93.10;38.53;;;1.50;99.90;;;;;;5111558;28;20245;-64
2023/12/08 07:07:50;;;;;;;88.67;36.07;;;1.60;99.90;;;;;;5111597;28;20200;-60
2023/12/08 07:10:19;;;;;;;99.53;38.63;;;1.50;99.90;;;;;;5110902;28;20198;-64
2023/12/08 07:12:47;;;;;;;104.53;38.10;;;1.50;99.90;;;;;;5092717;28;20204;-67
2023/12/08 07:15:16;;;;;;;91.50;38.07;;;1.60;99.90;;;;;;5111430;28;20776;-65
2023/12/08 07:17:46;;;;;;;90.37;36.53;;;1.80;99.90;;;;;;5111324;28;20199;-62
2023/12/08 07:20:17;;;;;;;96.27;39.13;;;1.90;99.90;;;;;;5111084;28;20284;-64
2023/12/08 07:22:45;;;;;;;95.73;36.17;;;1.80;99.90;;;;;;5126263;27;20664;-66
2023/12/08 07:25:14;;;;;;;101.00;38.83;;;2.00;99.90;;;;;;5131320;27;20669;-61
2023/12/08 07:27:45;;;;;;;89.70;37.73;;;2.20;99.90;;;;;;5131625;27;20642;-65
2023/12/08 07:30:13;;;;;;;91.53;38.60;;;2.20;99.90;;;;;;5131617;27;20283;-65
2023/12/08 07:32:42;;;;;;;97.33;38.33;;;2.20;99.90;;;;;;5131541;27;20565;-65
2023/12/08 07:35:12;;;;;;;102.07;41.33;;;2.30;99.90;;;;;;5131686;27;20245;-63
2023/12/08 07:37:41;;;;;;;82.80;34.77;;;2.40;99.90;;;;;;5118337;27;20227;-65
2023/12/08 07:40:11;;;;;;;92.80;37.07;;;2.10;99.90;;;;;;5130976;27;20615;-59
2023/12/08 07:42:39;;;;;;;96.40;38.97;;;2.00;99.90;;;;;;5130874;27;20755;-60
2023/12/08 07:45:09;;;;;;;90.43;38.03;;;1.90;99.90;;;;;;5131379;27;20732;-61
2023/12/08 07:47:38;;;;;;;95.97;37.90;;;1.80;99.90;;;;;;5125405;27;20223;-58
2023/12/08 07:50:08;;;;;;;93.10;37.60;;;1.90;99.90;;;;;;5124293;27;20201;-60
2023/12/08 07:52:38;;;;;;;93.60;38.40;;;2.10;99.90;;;;;;5130974;27;20691;-60
2023/12/08 07:55:07;;;;;;;93.17;39.50;;;2.10;99.90;;;;;;5130595;27;20680;-58
2023/12/08 07:57:35;;;;;;;102.07;40.03;;;2.30;99.90;;;;;;5131015;27;20217;-63
2023/12/08 08:00:06;;;;;;;100.83;41.00;;;2.20;99.90;;;;;;5131411;27;20203;-62
2023/12/08 08:02:34;;;;;;;99.67;38.33;;;2.30;99.90;;;;;;5131354;27;20680;-63
2023/12/08 08:05:02;;;;;;;93.10;36.53;;;2.30;99.90;;;;;;5131044;27;20260;-58
2023/12/08 08:07:31;;;;;;;95.30;38.10;;;2.10;99.90;;;;;;5130944;27;20213;-60
2023/12/08 08:10:01;;;;;;;86.63;36.83;;;2.00;99.90;;;;;;5130662;27;20207;-58
2023/12/08 08:12:32;;;;;;;79.43;35.07;;;1.90;99.90;;;;;;5130635;27;20745;-61
2023/12/08 08:15:00;;;;;;;92.30;36.20;;;2.10;99.90;;;;;;5126386;27;20192;-61
2023/12/08 08:17:29;;;;;;;78.17;34.87;;;2.20;99.90;;;;;;5121505;27;20564;-60
2023/12/08 08:19:57;;;;;;;90.03;36.43;;;2.20;99.90;;;;;;5130606;27;20726;-61
2023/12/08 08:22:26;;;;;;;95.50;38.83;;;1.80;99.90;;;;;;5130312;27;20192;-60
2023/12/08 08:24:58;;;;;;;89.60;38.40;;;1.70;99.90;;;;;;5129991;27;20226;-62
2023/12/08 08:27:28;;;;;;;83.27;33.60;;;1.60;99.90;;;;;;5130385;27;20211;-60
2023/12/08 08:29:56;;;;;;;88.27;35.50;;;1.80;99.90;;;;;;5130662;27;20248;-60
2023/12/08 08:32:25;;;;;;;76.43;30.00;;;1.70;99.90;;;;;;5130487;27;20192;-62
2023/12/08 08:34:53;;;;;;;85.67;33.57;;;1.50;99.90;;;;;;5130454;28;20278;-58
2023/12/08 08:37:23;;;;;;;88.13;37.53;;;1.40;99.90;;;;;;5129927;28;20769;-61
2023/12/08 08:39:52;;;;;;;93.07;38.93;;;1.40;99.90;;;;;;5130438;27;20193;-58
2023/12/08 08:42:20;;;;;;;90.53;41.77;;;1.60;99.90;;;;;;5134283;27;20198;-62
2023/12/08 08:44:50;;;;;;;96.00;37.20;;;1.80;99.90;;;;;;5134601;27;20226;-60
2023/12/08 08:47:20;;;;;;;80.80;35.97;;;1.80;99.90;;;;;;5134658;27;20195;-63
2023/12/08 08:49:48;;;;;;;105.33;47.07;;;2.00;99.90;;;;;;5134417;27;20204;-62
2023/12/08 08:52:18;;;;;;;92.43;42.53;;;2.00;99.90;;;;;;5133609;27;20618;-63
2023/12/08 08:54:47;;;;;;;121.77;49.13;;;1.90;99.90;;;;;;5134205;27;20207;-60
2023/12/08 08:57:17;;;;;;;107.67;46.97;;;2.20;99.90;;;;;;5115712;27;20206;-62
2023/12/08 08:59:45;;;;;;;115.50;46.27;;;2.50;99.90;;;;;;5134123;27;20772;-59
2023/12/08 09:02:15;;;;;;;107.07;45.53;;;2.50;99.90;;;;;;5120882;27;20325;-62
2023/12/08 09:04:43;;;;;;;111.53;46.23;;;2.60;99.90;;;;;;5133131;27;20236;-58
2023/12/08 09:07:11;;;;;;;123.93;52.13;;;2.30;99.90;;;;;;5111315;27;20227;-60
2023/12/08 09:09:40;;;;;;;115.10;47.33;;;2.50;99.90;;;;;;5134258;27;20235;-59
2023/12/08 09:12:10;;;;;;;106.80;43.13;;;2.60;99.90;;;;;;5133889;27;20194;-61
2023/12/08 09:14:39;;;;;;;114.37;45.67;;;2.50;99.90;;;;;;5134042;27;20207;-64
2023/12/08 09:17:07;;;;;;;104.27;44.33;;;2.50;99.90;;;;;;5134336;27;20578;-64
2023/12/08 09:19:37;;;;;;;103.33;41.43;;;2.60;99.90;;;;;;5133452;27;20234;-65
2023/12/08 09:22:06;;;;;;;116.33;61.17;;;2.50;99.90;;;;;;5133488;27;20204;-64
2023/12/08 09:24:35;;;;;;;116.87;48.87;;;2.10;99.90;;;;;;5133300;27;20561;-61
2023/12/08 09:27:04;;;;;;;102.87;45.10;;;2.30;99.90;;;;;;5133150;27;20200;-62
2023/12/08 09:29:32;;;;;;;100.77;43.07;;;2.30;99.90;;;;;;5133245;27;20198;-64
2023/12/08 09:32:00;;;;;;;89.13;40.57;;;2.20;99.90;;;;;;5133314;27;20198;-61
2023/12/08 09:34:29;;;;;;;103.30;42.17;;;2.00;99.90;;;;;;5133122;27;20202;-65
2023/12/08 09:36:59;;;;;;;94.07;39.00;;;1.90;99.90;;;;;;5133076;27;20208;-64
2023/12/08 09:39:47;;;;;;;103.37;42.40;;;1.80;99.90;;;;;;5133012;27;20200;-63
2023/12/08 09:42:27;;;;;;;100.43;43.70;;;1.60;99.90;;;;;;5132797;27;20197;-66
2023/12/08 09:44:56;;;;;;;95.47;40.40;;;2.00;99.90;;;;;;5114422;27;20255;-65
2023/12/08 09:47:27;;;;;;;95.27;44.00;;;1.90;99.90;;;;;;5133118;27;20194;-60
2023/12/08 09:49:56;;;;;;;98.13;43.57;;;1.90;99.90;;;;;;5120100;27;20199;-63
2023/12/08 09:52:26;;;;;;;96.70;42.53;;;2.00;99.90;;;;;;5130194;27;20203;-63
2023/12/08 09:54:55;;;;;;;86.83;43.07;;;1.80;99.90;;;;;;5133158;27;20716;-63
2023/12/08 09:57:24;;;;;;;96.90;42.10;;;1.70;99.90;;;;;;5132888;27;20200;-62
2023/12/08 09:59:55;;;;;;;96.40;42.57;;;1.70;99.90;;;;;;5132709;27;20610;-62
2023/12/08 10:02:24;;;;;;;86.17;40.17;;;1.60;99.90;;;;;;5133064;27;20653;-62
2023/12/08 10:04:52;;;;;;;93.20;39.17;;;1.80;99.90;;;;;;5132522;27;20208;-61
2023/12/08 10:07:21;;;;;;;81.33;39.80;;;1.80;99.90;;;;;;5132520;27;20201;-63
2023/12/08 10:09:51;;;;;;;87.03;39.20;;;2.00;99.90;;;;;;5132578;27;20196;-63
2023/12/08 10:12:19;;;;;;;90.40;42.13;;;1.90;99.90;;;;;;5132374;27;20185;-61
2023/12/08 10:14:52;;;;;;;82.37;39.57;;;1.70;99.90;;;;;;5132334;27;20591;-66
2023/12/08 10:17:21;;;;;;;89.10;40.87;;;1.50;99.90;;;;;;5132512;27;20197;-65
2023/12/08 10:19:51;;;;;;;100.03;44.10;;;1.60;99.90;;;;;;5121542;27;20189;-63
2023/12/08 10:22:21;;;;;;;97.47;45.67;;;1.80;99.90;;;;;;5127997;27;20209;-64
2023/12/08 10:24:50;;;;;;;97.67;46.17;;;2.00;99.90;;;;;;5132460;27;20209;-60
2023/12/08 10:27:19;;;;;;;100.87;43.63;;;1.90;99.90;;;;;;5132409;27;20198;-63
2023/12/08 10:29:48;;;;;;;100.90;46.93;;;2.10;99.90;;;;;;5132313;27;20185;-63
2023/12/08 10:32:16;;;;;;;98.33;42.90;;;2.20;99.90;;;;;;5132220;27;20191;-65
2023/12/08 10:34:45;;;;;;;76.60;37.30;;;2.20;99.90;;;;;;5132046;27;20200;-62
2023/12/08 10:37:14;;;;;;;71.80;35.83;;;1.80;99.90;;;;;;5131917;27;20206;-63
2023/12/08 10:39:43;;;;;;;76.70;35.00;;;1.70;99.90;;;;;;5132000;27;20191;-60
2023/12/08 10:42:13;;;;;;;67.70;33.00;;;1.60;99.90;;;;;;5131754;27;20256;-65
2023/12/08 10:44:46;;;;;;;79.53;36.30;;;1.60;99.90;;;;;;5131726;27;20219;-65
2023/12/08 10:47:15;;;;;;;72.63;35.73;;;1.40;99.90;;;;;;5131696;27;20318;-66
2023/12/08 10:49:44;;;;;;;73.27;38.40;;;1.20;99.90;;;;;;5122315;27;20656;-63
2023/12/08 10:52:13;;;;;;;78.57;37.93;;;1.30;99.90;;;;;;5125271;27;20563;-63
2023/12/08 10:54:41;;;;;;;74.20;35.60;;;1.40;99.90;;;;;;5131715;27;20215;-65
2023/12/08 10:57:10;;;;;;;74.73;35.90;;;1.50;99.90;;;;;;5131770;27;20992;-66
2023/12/08 10:59:44;;;;;;;67.87;33.13;;;1.20;99.90;;;;;;5131382;27;20903;-64
2023/12/08 11:02:21;;;;;;;70.20;31.80;;;1.00;99.90;;;;;;5131856;27;20912;-65
2023/12/08 11:04:55;;;;;;;61.10;31.90;;;0.80;99.90;;;;;;5130938;27;20208;-63
2023/12/08 11:07:28;;;;;;;70.63;33.90;;;1.00;99.90;;;;;;5131608;27;20221;-61
2023/12/08 11:10:00;;;;;;;72.50;33.10;;;1.00;99.90;;;;;;5131553;27;20206;-62
2023/12/08 11:12:31;;;;;;;64.43;31.53;;;1.10;99.90;;;;;;5131482;27;20765;-64
2023/12/08 11:15:04;;;;;;;70.23;33.77;;;1.10;99.90;;;;;;5131633;27;20208;-66
2023/12/08 11:17:37;;;;;;;74.77;32.97;;;1.30;99.90;;;;;;5131543;27;20187;-61
2023/12/08 11:20:08;;;;;;;65.13;32.77;;;1.40;99.90;;;;;;5115597;27;20189;-65
2023/12/08 11:22:36;;;;;;;70.33;33.50;;;1.80;99.90;;;;;;5114528;27;20216;-60
2023/12/08 11:25:10;;;;;;;71.93;34.20;;;1.60;99.90;;;;;;5130928;27;20283;-62
2023/12/08 11:27:45;;;;;;;96.07;42.60;;;1.50;99.90;;;;;;5130963;27;20569;-61
2023/12/08 11:30:20;;;;;;;65.70;32.30;;;1.80;99.90;;;;;;5130849;27;20182;-65
2023/12/08 11:32:52;;;;;;;69.13;32.00;;;1.50;99.90;;;;;;5130849;27;20194;-66
2023/12/08 11:35:21;;;;;;;137.63;65.60;;;1.50;99.90;;;;;;5130683;27;20271;-63
2023/12/08 11:37:50;;;;;;;98.27;45.50;;;1.90;99.90;;;;;;5130812;27;20199;-63
2023/12/08 11:40:18;;;;;;;72.93;36.77;;;2.20;99.90;;;;;;5130777;27;20206;-62
2023/12/08 11:42:50;;;;;;;77.57;37.83;;;2.20;99.90;;;;;;5130503;27;20203;-66
2023/12/08 11:45:20;;;;;;;63.37;30.57;;;2.10;99.90;;;;;;5130705;27;20701;-64
2023/12/08 11:47:49;;;;;;;61.67;29.47;;;1.50;99.90;;;;;;5128666;27;20187;-60
2023/12/08 11:50:18;;;;;;;60.10;29.87;;;1.00;99.90;;;;;;5118497;27;20550;-66
2023/12/08 11:52:46;;;;;;;56.70;29.87;;;1.00;99.90;;;;;;5110098;28;20738;-61
2023/12/08 11:55:19;;;;;;;62.63;30.03;;;1.10;99.90;;;;;;5110147;28;20285;-63
2023/12/08 11:58:05;;;;;;;58.10;29.60;;;1.00;99.90;;;;;;5109613;28;20191;-63
2023/12/08 12:00:36;;;;;;;60.90;30.40;;;1.00;99.90;;;;;;5109925;28;20196;-64
2023/12/08 12:03:06;;;;;;;59.70;30.80;;;0.80;99.90;;;;;;5109843;28;20188;-59
2023/12/08 12:05:38;;;;;;;63.80;30.63;;;0.90;99.90;;;;;;5109848;28;20611;-63
2023/12/08 12:08:08;;;;;;;63.90;29.87;;;0.30;99.90;;;;;;5109802;28;20281;-62
2023/12/08 12:10:38;;;;;;;60.20;29.37;;;0.60;99.90;;;;;;5109757;28;20292;-65
2023/12/08 12:13:09;;;;;;;66.10;30.50;;;0.70;99.90;;;;;;5109630;28;20184;-65
2023/12/08 12:15:40;;;;;;;62.33;30.87;;;0.70;99.90;;;;;;5109020;28;20222;-63
2023/12/08 12:18:10;;;;;;;65.43;30.77;;;0.90;99.90;;;;;;5109601;27;20187;-66
2023/12/08 12:20:39;;;;;;;66.70;30.90;;;0.80;99.90;;;;;;5123068;27;20230;-66
2023/12/08 12:23:08;;;;;;;63.53;31.33;;;0.60;99.90;;;;;;5109799;28;20257;-64
2023/12/08 12:25:36;;;;;;;67.57;33.20;;;0.60;99.90;;;;;;5128258;27;20223;-62
2023/12/08 12:28:05;;;;;;;63.40;30.47;;;0.80;99.90;;;;;;5129892;27;20192;-66
2023/12/08 12:30:33;;;;;;;68.43;30.47;;;1.00;99.90;;;;;;5130104;27;20205;-66
2023/12/08 12:33:04;;;;;;;62.83;30.03;;;0.80;99.90;;;;;;5128640;27;20201;-62
2023/12/08 12:35:33;;;;;;;66.30;31.87;;;0.50;99.90;;;;;;5130029;27;20987;-65
2023/12/08 12:38:03;;;;;;;76.40;34.70;;;0.60;99.90;;;;;;5129888;28;20194;-65
2023/12/08 12:40:31;;;;;;;70.40;33.07;;;0.80;99.90;;;;;;5129779;28;20244;-67
2023/12/08 12:42:59;;;;;;;73.67;32.87;;;0.90;99.90;;;;;;5125442;27;20805;-65
2023/12/08 12:45:29;;;;;;;73.60;36.07;;;1.10;99.90;;;;;;5120716;28;20207;-63